sensor_id;sensor_type;location;lat;lon;timestamp;P1;durP1;ratioP1;P2;durP2;ratioP2
9968;SDS011;5025;48.890;9.278;2022-11-06T00:01:13;9.17;;;8.20;;
9968;SDS011;5025;48.890;9.278;2022-11-06T00:03:39;9.03;;;8.23;;
9968;SDS011;5025;48.890;9.278;2022-11-06T00:06:09;8.90;;;8.00;;
9968;SDS011;5025;48.890;9.278;2022-11-06T00:08:55;8.50;;;7.73;;
9968;SDS011;5025;48.890;9.278;2022-11-06T00:11:22;8.53;;;7.70;;
9968;SDS011;5025;48.890;9.278;2022-11-06T00:13:48;8.40;;;7.60;;
9968;SDS011;5025;48.890;9.278;2022-11-06T00:16:16;8.20;;;7.50;;
9968;SDS011;5025;48.890;9.278;2022-11-06T00:18:41;8.63;;;7.93;;
9968;SDS011;5025;48.890;9.278;2022-11-06T00:21:17;8.97;;;8.07;;
9968;SDS011;5025;48.890;9.278;2022-11-06T00:23:47;8.93;;;8.13;;
9968;SDS011;5025;48.890;9.278;2022-11-06T00:26:14;8.87;;;8.03;;
9968;SDS011;5025;48.890;9.278;2022-11-06T00:28:42;8.57;;;7.77;;
9968;SDS011;5025;48.890;9.278;2022-11-06T00:31:09;8.77;;;7.77;;
9968;SDS011;5025;48.890;9.278;2022-11-06T00:33:36;8.00;;;7.30;;
9968;SDS011;5025;48.890;9.278;2022-11-06T00:36:05;8.80;;;8.00;;
9968;SDS011;5025;48.890;9.278;2022-11-06T00:38:32;7.97;;;7.27;;
9968;SDS011;5025;48.890;9.278;2022-11-06T00:41:06;9.00;;;8.20;;
9968;SDS011;5025;48.890;9.278;2022-11-06T00:43:33;9.43;;;8.53;;
9968;SDS011;5025;48.890;9.278;2022-11-06T00:46:10;8.97;;;8.07;;
9968;SDS011;5025;48.890;9.278;2022-11-06T00:48:37;9.03;;;8.23;;
9968;SDS011;5025;48.890;9.278;2022-11-06T00:51:04;9.27;;;8.37;;
9968;SDS011;5025;48.890;9.278;2022-11-06T00:53:34;8.20;;;7.43;;
9968;SDS011;5025;48.890;9.278;2022-11-06T00:56:15;8.50;;;7.67;;
9968;SDS011;5025;48.890;9.278;2022-11-06T00:58:43;9.07;;;8.17;;
9968;SDS011;5025;48.890;9.278;2022-11-06T01:01:13;8.77;;;7.97;;
9968;SDS011;5025;48.890;9.278;2022-11-06T01:03:41;9.17;;;8.27;;
9968;SDS011;5025;48.890;9.278;2022-11-06T01:06:08;7.97;;;7.27;;
9968;SDS011;5025;48.890;9.278;2022-11-06T01:08:35;8.97;;;8.27;;
9968;SDS011;5025;48.890;9.278;2022-11-06T01:11:04;9.07;;;8.27;;
9968;SDS011;5025;48.890;9.278;2022-11-06T01:13:32;8.63;;;7.83;;
9968;SDS011;5025;48.890;9.278;2022-11-06T01:15:57;9.10;;;8.23;;
9968;SDS011;5025;48.890;9.278;2022-11-06T01:18:23;9.13;;;8.27;;
9968;SDS011;5025;48.890;9.278;2022-11-06T01:20:48;7.73;;;7.03;;
9968;SDS011;5025;48.890;9.278;2022-11-06T01:23:13;8.57;;;7.77;;
9968;SDS011;5025;48.890;9.278;2022-11-06T01:25:38;9.10;;;8.20;;
9968;SDS011;5025;48.890;9.278;2022-11-06T01:28:04;9.03;;;8.13;;
9968;SDS011;5025;48.890;9.278;2022-11-06T01:30:29;8.87;;;8.03;;
9968;SDS011;5025;48.890;9.278;2022-11-06T01:32:54;9.20;;;8.23;;
9968;SDS011;5025;48.890;9.278;2022-11-06T01:35:20;9.37;;;8.47;;
9968;SDS011;5025;48.890;9.278;2022-11-06T01:37:45;9.73;;;8.73;;
9968;SDS011;5025;48.890;9.278;2022-11-06T01:40:10;9.40;;;8.00;;
9968;SDS011;5025;48.890;9.278;2022-11-06T01:42:36;8.90;;;8.03;;
9968;SDS011;5025;48.890;9.278;2022-11-06T01:47:56;8.03;;;7.23;;
9968;SDS011;5025;48.890;9.278;2022-11-06T01:50:21;7.90;;;7.13;;
9968;SDS011;5025;48.890;9.278;2022-11-06T01:52:47;10.30;;;9.10;;
9968;SDS011;5025;48.890;9.278;2022-11-06T01:55:23;10.90;;;8.70;;
9968;SDS011;5025;48.890;9.278;2022-11-06T01:57:54;9.97;;;8.97;;
9968;SDS011;5025;48.890;9.278;2022-11-06T02:00:21;9.47;;;8.53;;
9968;SDS011;5025;48.890;9.278;2022-11-06T02:02:47;9.70;;;8.80;;
9968;SDS011;5025;48.890;9.278;2022-11-06T02:05:13;10.00;;;9.10;;
9968;SDS011;5025;48.890;9.278;2022-11-06T02:07:39;9.30;;;8.40;;
9968;SDS011;5025;48.890;9.278;2022-11-06T02:10:07;8.97;;;8.13;;
9968;SDS011;5025;48.890;9.278;2022-11-06T02:15:18;9.20;;;8.23;;
9968;SDS011;5025;48.890;9.278;2022-11-06T02:28:44;7.87;;;7.27;;
9968;SDS011;5025;48.890;9.278;2022-11-06T02:31:30;7.87;;;7.27;;
9968;SDS011;5025;48.890;9.278;2022-11-06T02:34:07;8.20;;;7.50;;
9968;SDS011;5025;48.890;9.278;2022-11-06T02:36:46;8.83;;;7.93;;
9968;SDS011;5025;48.890;9.278;2022-11-06T02:39:18;8.27;;;7.57;;
9968;SDS011;5025;48.890;9.278;2022-11-06T02:41:46;8.23;;;7.53;;
9968;SDS011;5025;48.890;9.278;2022-11-06T02:44:18;8.33;;;7.63;;
9968;SDS011;5025;48.890;9.278;2022-11-06T02:46:50;8.47;;;7.67;;
9968;SDS011;5025;48.890;9.278;2022-11-06T02:49:31;7.83;;;7.23;;
9968;SDS011;5025;48.890;9.278;2022-11-06T02:54:56;6.67;;;6.07;;
9968;SDS011;5025;48.890;9.278;2022-11-06T02:57:27;7.87;;;7.27;;
9968;SDS011;5025;48.890;9.278;2022-11-06T03:00:01;6.63;;;6.13;;
9968;SDS011;5025;48.890;9.278;2022-11-06T03:02:32;7.07;;;6.47;;
9968;SDS011;5025;48.890;9.278;2022-11-06T03:07:54;7.17;;;6.57;;
9968;SDS011;5025;48.890;9.278;2022-11-06T03:10:27;6.57;;;6.07;;
9968;SDS011;5025;48.890;9.278;2022-11-06T03:13:09;6.67;;;6.10;;
9968;SDS011;5025;48.890;9.278;2022-11-06T03:15:46;6.87;;;6.37;;
9968;SDS011;5025;48.890;9.278;2022-11-06T03:18:37;7.37;;;6.77;;
9968;SDS011;5025;48.890;9.278;2022-11-06T03:21:56;6.50;;;6.00;;
9968;SDS011;5025;48.890;9.278;2022-11-06T03:27:22;6.80;;;6.20;;
9968;SDS011;5025;48.890;9.278;2022-11-06T03:29:57;6.30;;;5.80;;
9968;SDS011;5025;48.890;9.278;2022-11-06T03:32:59;6.00;;;5.53;;
9968;SDS011;5025;48.890;9.278;2022-11-06T03:38:21;6.10;;;5.60;;
9968;SDS011;5025;48.890;9.278;2022-11-06T03:40:52;6.30;;;5.80;;
9968;SDS011;5025;48.890;9.278;2022-11-06T03:43:23;5.87;;;5.40;;
9968;SDS011;5025;48.890;9.278;2022-11-06T03:45:52;6.40;;;5.90;;
9968;SDS011;5025;48.890;9.278;2022-11-06T03:48:23;6.73;;;6.20;;
9968;SDS011;5025;48.890;9.278;2022-11-06T03:51:18;7.53;;;6.93;;
9968;SDS011;5025;48.890;9.278;2022-11-06T03:59:12;7.37;;;6.67;;
9968;SDS011;5025;48.890;9.278;2022-11-06T04:01:43;7.03;;;6.43;;
9968;SDS011;5025;48.890;9.278;2022-11-06T04:04:12;7.90;;;7.20;;
9968;SDS011;5025;48.890;9.278;2022-11-06T04:07:07;8.60;;;7.80;;
9968;SDS011;5025;48.890;9.278;2022-11-06T04:09:38;7.90;;;7.20;;
9968;SDS011;5025;48.890;9.278;2022-11-06T04:12:26;8.03;;;7.30;;
9968;SDS011;5025;48.890;9.278;2022-11-06T04:15:13;7.60;;;6.90;;
9968;SDS011;5025;48.890;9.278;2022-11-06T04:17:41;7.90;;;7.17;;
9968;SDS011;5025;48.890;9.278;2022-11-06T04:20:08;7.93;;;7.23;;
9968;SDS011;5025;48.890;9.278;2022-11-06T04:26:04;7.47;;;6.77;;
9968;SDS011;5025;48.890;9.278;2022-11-06T04:34:20;9.27;;;8.23;;
9968;SDS011;5025;48.890;9.278;2022-11-06T04:39:58;9.27;;;8.33;;
9968;SDS011;5025;48.890;9.278;2022-11-06T04:42:32;9.33;;;8.40;;
9968;SDS011;5025;48.890;9.278;2022-11-06T04:45:05;9.17;;;8.27;;
9968;SDS011;5025;48.890;9.278;2022-11-06T04:47:35;9.27;;;8.13;;
9968;SDS011;5025;48.890;9.278;2022-11-06T04:50:02;10.77;;;9.40;;
9968;SDS011;5025;48.890;9.278;2022-11-06T04:52:32;11.53;;;9.37;;
9968;SDS011;5025;48.890;9.278;2022-11-06T04:54:58;12.43;;;9.97;;
9968;SDS011;5025;48.890;9.278;2022-11-06T04:57:24;10.53;;;9.53;;
9968;SDS011;5025;48.890;9.278;2022-11-06T04:59:50;12.63;;;9.43;;
9968;SDS011;5025;48.890;9.278;2022-11-06T05:02:16;10.60;;;9.33;;
9968;SDS011;5025;48.890;9.278;2022-11-06T05:04:41;10.20;;;8.83;;
9968;SDS011;5025;48.890;9.278;2022-11-06T05:07:07;9.30;;;8.40;;
9968;SDS011;5025;48.890;9.278;2022-11-06T05:09:35;9.87;;;8.70;;
9968;SDS011;5025;48.890;9.278;2022-11-06T05:12:01;9.67;;;8.73;;
9968;SDS011;5025;48.890;9.278;2022-11-06T05:14:26;9.33;;;8.43;;
9968;SDS011;5025;48.890;9.278;2022-11-06T05:16:51;8.47;;;7.67;;
9968;SDS011;5025;48.890;9.278;2022-11-06T05:19:17;8.00;;;7.30;;
9968;SDS011;5025;48.890;9.278;2022-11-06T05:21:42;7.83;;;7.13;;
9968;SDS011;5025;48.890;9.278;2022-11-06T05:24:26;6.90;;;6.30;;
9968;SDS011;5025;48.890;9.278;2022-11-06T05:26:52;6.67;;;6.07;;
9968;SDS011;5025;48.890;9.278;2022-11-06T05:29:18;6.60;;;6.07;;
9968;SDS011;5025;48.890;9.278;2022-11-06T05:31:43;6.67;;;6.00;;
9968;SDS011;5025;48.890;9.278;2022-11-06T05:34:08;7.70;;;6.90;;
9968;SDS011;5025;48.890;9.278;2022-11-06T05:36:34;6.73;;;6.23;;
9968;SDS011;5025;48.890;9.278;2022-11-06T05:38:59;7.27;;;6.63;;
9968;SDS011;5025;48.890;9.278;2022-11-06T05:41:24;6.67;;;6.17;;
9968;SDS011;5025;48.890;9.278;2022-11-06T05:43:50;6.87;;;6.27;;
9968;SDS011;5025;48.890;9.278;2022-11-06T05:46:15;7.37;;;6.67;;
9968;SDS011;5025;48.890;9.278;2022-11-06T05:48:40;5.73;;;5.23;;
9968;SDS011;5025;48.890;9.278;2022-11-06T05:51:06;6.67;;;6.13;;
9968;SDS011;5025;48.890;9.278;2022-11-06T05:53:33;6.77;;;6.23;;
9968;SDS011;5025;48.890;9.278;2022-11-06T05:55:59;7.60;;;6.97;;
9968;SDS011;5025;48.890;9.278;2022-11-06T05:58:25;6.43;;;5.93;;
9968;SDS011;5025;48.890;9.278;2022-11-06T06:00:51;6.23;;;5.73;;
9968;SDS011;5025;48.890;9.278;2022-11-06T06:03:18;6.03;;;5.53;;
9968;SDS011;5025;48.890;9.278;2022-11-06T06:05:45;6.60;;;6.00;;
9968;SDS011;5025;48.890;9.278;2022-11-06T06:08:10;6.40;;;5.90;;
9968;SDS011;5025;48.890;9.278;2022-11-06T06:10:39;6.23;;;5.73;;
9968;SDS011;5025;48.890;9.278;2022-11-06T06:13:05;6.30;;;5.70;;
9968;SDS011;5025;48.890;9.278;2022-11-06T06:15:30;6.70;;;6.20;;
9968;SDS011;5025;48.890;9.278;2022-11-06T06:17:56;6.67;;;6.13;;
9968;SDS011;5025;48.890;9.278;2022-11-06T06:20:21;7.03;;;6.40;;
9968;SDS011;5025;48.890;9.278;2022-11-06T06:22:53;6.80;;;6.20;;
9968;SDS011;5025;48.890;9.278;2022-11-06T06:25:22;11.77;;;7.33;;
9968;SDS011;5025;48.890;9.278;2022-11-06T06:27:49;28.17;;;7.07;;
9968;SDS011;5025;48.890;9.278;2022-11-06T06:30:14;6.33;;;5.83;;
9968;SDS011;5025;48.890;9.278;2022-11-06T06:32:40;6.97;;;6.47;;
9968;SDS011;5025;48.890;9.278;2022-11-06T06:35:08;6.57;;;6.07;;
9968;SDS011;5025;48.890;9.278;2022-11-06T06:37:34;7.50;;;6.90;;
9968;SDS011;5025;48.890;9.278;2022-11-06T06:39:59;10.73;;;9.63;;
9968;SDS011;5025;48.890;9.278;2022-11-06T06:42:26;18.67;;;15.10;;
9968;SDS011;5025;48.890;9.278;2022-11-06T06:44:52;21.13;;;13.60;;
9968;SDS011;5025;48.890;9.278;2022-11-06T06:47:17;11.67;;;9.60;;
9968;SDS011;5025;48.890;9.278;2022-11-06T06:49:43;9.37;;;8.33;;
9968;SDS011;5025;48.890;9.278;2022-11-06T06:52:09;8.83;;;7.97;;
9968;SDS011;5025;48.890;9.278;2022-11-06T06:54:35;7.67;;;6.93;;
9968;SDS011;5025;48.890;9.278;2022-11-06T06:57:00;7.50;;;6.77;;
9968;SDS011;5025;48.890;9.278;2022-11-06T06:59:29;6.40;;;5.80;;
9968;SDS011;5025;48.890;9.278;2022-11-06T07:01:54;5.83;;;5.33;;
9968;SDS011;5025;48.890;9.278;2022-11-06T07:04:20;6.93;;;6.23;;
9968;SDS011;5025;48.890;9.278;2022-11-06T07:06:45;6.73;;;6.13;;
9968;SDS011;5025;48.890;9.278;2022-11-06T07:09:11;6.83;;;6.23;;
9968;SDS011;5025;48.890;9.278;2022-11-06T07:11:36;6.50;;;5.90;;
9968;SDS011;5025;48.890;9.278;2022-11-06T07:14:01;6.17;;;5.67;;
9968;SDS011;5025;48.890;9.278;2022-11-06T07:16:27;7.20;;;6.50;;
9968;SDS011;5025;48.890;9.278;2022-11-06T07:18:54;7.57;;;6.87;;
9968;SDS011;5025;48.890;9.278;2022-11-06T07:21:20;7.60;;;6.80;;
9968;SDS011;5025;48.890;9.278;2022-11-06T07:23:46;10.13;;;8.53;;
9968;SDS011;5025;48.890;9.278;2022-11-06T07:26:11;10.17;;;8.03;;
9968;SDS011;5025;48.890;9.278;2022-11-06T07:28:37;9.10;;;7.80;;
9968;SDS011;5025;48.890;9.278;2022-11-06T07:31:05;10.20;;;7.87;;
9968;SDS011;5025;48.890;9.278;2022-11-06T07:33:31;9.27;;;7.73;;
9968;SDS011;5025;48.890;9.278;2022-11-06T07:36:01;8.30;;;7.50;;
9968;SDS011;5025;48.890;9.278;2022-11-06T07:38:28;8.53;;;7.63;;
9968;SDS011;5025;48.890;9.278;2022-11-06T07:40:53;7.03;;;6.43;;
9968;SDS011;5025;48.890;9.278;2022-11-06T07:43:19;7.43;;;6.73;;
9968;SDS011;5025;48.890;9.278;2022-11-06T07:45:44;6.10;;;5.60;;
9968;SDS011;5025;48.890;9.278;2022-11-06T07:48:09;5.83;;;5.33;;
9968;SDS011;5025;48.890;9.278;2022-11-06T07:50:35;5.70;;;5.23;;
9968;SDS011;5025;48.890;9.278;2022-11-06T07:53:00;5.90;;;5.33;;
9968;SDS011;5025;48.890;9.278;2022-11-06T07:55:27;6.43;;;5.83;;
9968;SDS011;5025;48.890;9.278;2022-11-06T07:57:52;6.13;;;5.53;;
9968;SDS011;5025;48.890;9.278;2022-11-06T08:00:17;5.70;;;5.20;;
9968;SDS011;5025;48.890;9.278;2022-11-06T08:02:44;5.80;;;5.30;;
9968;SDS011;5025;48.890;9.278;2022-11-06T08:05:09;6.10;;;5.60;;
9968;SDS011;5025;48.890;9.278;2022-11-06T08:07:34;6.03;;;5.40;;
9968;SDS011;5025;48.890;9.278;2022-11-06T08:10:00;5.80;;;5.30;;
9968;SDS011;5025;48.890;9.278;2022-11-06T08:12:25;5.53;;;5.03;;
9968;SDS011;5025;48.890;9.278;2022-11-06T08:14:50;5.80;;;5.30;;
9968;SDS011;5025;48.890;9.278;2022-11-06T08:17:16;5.40;;;5.00;;
9968;SDS011;5025;48.890;9.278;2022-11-06T08:19:41;5.60;;;5.20;;
9968;SDS011;5025;48.890;9.278;2022-11-06T08:22:06;5.47;;;5.07;;
9968;SDS011;5025;48.890;9.278;2022-11-06T08:24:33;5.73;;;5.23;;
9968;SDS011;5025;48.890;9.278;2022-11-06T08:26:58;5.57;;;5.07;;
9968;SDS011;5025;48.890;9.278;2022-11-06T08:29:24;5.50;;;5.07;;
9968;SDS011;5025;48.890;9.278;2022-11-06T08:31:49;6.00;;;5.50;;
9968;SDS011;5025;48.890;9.278;2022-11-06T08:34:14;7.00;;;6.40;;
9968;SDS011;5025;48.890;9.278;2022-11-06T08:36:41;6.13;;;5.53;;
9968;SDS011;5025;48.890;9.278;2022-11-06T08:39:14;5.90;;;5.40;;
9968;SDS011;5025;48.890;9.278;2022-11-06T08:41:39;7.00;;;6.40;;
9968;SDS011;5025;48.890;9.278;2022-11-06T08:44:05;6.13;;;5.63;;
9968;SDS011;5025;48.890;9.278;2022-11-06T08:46:31;7.57;;;6.87;;
9968;SDS011;5025;48.890;9.278;2022-11-06T08:48:56;8.23;;;7.43;;
9968;SDS011;5025;48.890;9.278;2022-11-06T08:51:21;8.50;;;7.70;;
9968;SDS011;5025;48.890;9.278;2022-11-06T08:53:47;8.53;;;7.73;;
9968;SDS011;5025;48.890;9.278;2022-11-06T08:56:12;8.70;;;7.80;;
9968;SDS011;5025;48.890;9.278;2022-11-06T08:58:38;8.30;;;7.60;;
9968;SDS011;5025;48.890;9.278;2022-11-06T09:01:03;8.13;;;7.43;;
9968;SDS011;5025;48.890;9.278;2022-11-06T09:03:29;8.30;;;7.60;;
9968;SDS011;5025;48.890;9.278;2022-11-06T09:05:54;9.87;;;8.97;;
9968;SDS011;5025;48.890;9.278;2022-11-06T09:08:19;9.97;;;9.03;;
9968;SDS011;5025;48.890;9.278;2022-11-06T09:10:45;9.53;;;8.63;;
9968;SDS011;5025;48.890;9.278;2022-11-06T09:13:11;9.97;;;9.07;;
9968;SDS011;5025;48.890;9.278;2022-11-06T09:15:37;10.07;;;9.17;;
9968;SDS011;5025;48.890;9.278;2022-11-06T09:18:02;9.20;;;8.40;;
9968;SDS011;5025;48.890;9.278;2022-11-06T09:20:28;9.43;;;8.53;;
9968;SDS011;5025;48.890;9.278;2022-11-06T09:22:53;10.50;;;9.50;;
9968;SDS011;5025;48.890;9.278;2022-11-06T09:25:24;9.70;;;8.87;;
9968;SDS011;5025;48.890;9.278;2022-11-06T09:27:50;9.40;;;8.53;;
9968;SDS011;5025;48.890;9.278;2022-11-06T09:30:17;9.53;;;8.57;;
9968;SDS011;5025;48.890;9.278;2022-11-06T09:32:55;9.97;;;9.07;;
9968;SDS011;5025;48.890;9.278;2022-11-06T09:35:24;10.63;;;9.63;;
9968;SDS011;5025;48.890;9.278;2022-11-06T09:37:50;9.77;;;8.83;;
9968;SDS011;5025;48.890;9.278;2022-11-06T09:40:17;10.37;;;9.47;;
9968;SDS011;5025;48.890;9.278;2022-11-06T09:42:52;10.40;;;9.40;;
9968;SDS011;5025;48.890;9.278;2022-11-06T09:45:25;10.57;;;9.67;;
9968;SDS011;5025;48.890;9.278;2022-11-06T09:50:26;8.77;;;8.07;;
9968;SDS011;5025;48.890;9.278;2022-11-06T09:53:00;8.03;;;7.33;;
9968;SDS011;5025;48.890;9.278;2022-11-06T09:55:33;8.50;;;7.80;;
9968;SDS011;5025;48.890;9.278;2022-11-06T09:58:04;8.23;;;7.53;;
9968;SDS011;5025;48.890;9.278;2022-11-06T10:00:38;7.47;;;6.87;;
9968;SDS011;5025;48.890;9.278;2022-11-06T10:05:58;8.13;;;7.43;;
9968;SDS011;5025;48.890;9.278;2022-11-06T10:08:25;7.83;;;7.23;;
9968;SDS011;5025;48.890;9.278;2022-11-06T10:21:45;8.50;;;7.77;;
9968;SDS011;5025;48.890;9.278;2022-11-06T10:24:19;7.97;;;7.33;;
9968;SDS011;5025;48.890;9.278;2022-11-06T10:26:57;7.33;;;6.77;;
9968;SDS011;5025;48.890;9.278;2022-11-06T10:34:56;6.77;;;6.27;;
9968;SDS011;5025;48.890;9.278;2022-11-06T10:37:34;7.63;;;7.03;;
9968;SDS011;5025;48.890;9.278;2022-11-06T10:40:18;6.80;;;6.30;;
9968;SDS011;5025;48.890;9.278;2022-11-06T10:42:52;6.57;;;6.07;;
9968;SDS011;5025;48.890;9.278;2022-11-06T10:45:25;6.17;;;5.77;;
9968;SDS011;5025;48.890;9.278;2022-11-06T10:47:57;6.93;;;6.40;;
9968;SDS011;5025;48.890;9.278;2022-11-06T10:50:33;6.27;;;5.77;;
9968;SDS011;5025;48.890;9.278;2022-11-06T10:53:19;5.93;;;5.43;;
9968;SDS011;5025;48.890;9.278;2022-11-06T10:56:10;5.83;;;5.33;;
9968;SDS011;5025;48.890;9.278;2022-11-06T10:58:46;5.50;;;5.10;;
9968;SDS011;5025;48.890;9.278;2022-11-06T11:01:12;6.30;;;5.80;;
9968;SDS011;5025;48.890;9.278;2022-11-06T11:03:40;5.50;;;5.20;;
9968;SDS011;5025;48.890;9.278;2022-11-06T11:06:07;5.97;;;5.50;;
9968;SDS011;5025;48.890;9.278;2022-11-06T11:13:42;6.73;;;6.23;;
9968;SDS011;5025;48.890;9.278;2022-11-06T11:16:13;6.17;;;5.77;;
9968;SDS011;5025;48.890;9.278;2022-11-06T11:18:43;6.53;;;6.03;;
9968;SDS011;5025;48.890;9.278;2022-11-06T11:23:40;6.83;;;6.33;;
9968;SDS011;5025;48.890;9.278;2022-11-06T11:28:45;7.00;;;6.40;;
9968;SDS011;5025;48.890;9.278;2022-11-06T11:31:15;6.43;;;5.93;;
9968;SDS011;5025;48.890;9.278;2022-11-06T11:33:51;6.10;;;5.60;;
9968;SDS011;5025;48.890;9.278;2022-11-06T11:36:19;6.10;;;5.60;;
9968;SDS011;5025;48.890;9.278;2022-11-06T11:38:47;5.50;;;5.10;;
9968;SDS011;5025;48.890;9.278;2022-11-06T11:41:14;5.43;;;5.00;;
9968;SDS011;5025;48.890;9.278;2022-11-06T11:44:06;4.97;;;4.67;;
9968;SDS011;5025;48.890;9.278;2022-11-06T11:49:25;4.83;;;4.47;;
9968;SDS011;5025;48.890;9.278;2022-11-06T11:51:53;4.70;;;4.30;;
9968;SDS011;5025;48.890;9.278;2022-11-06T11:54:20;4.13;;;3.83;;
9968;SDS011;5025;48.890;9.278;2022-11-06T11:56:56;4.03;;;3.73;;
9968;SDS011;5025;48.890;9.278;2022-11-06T11:59:26;3.43;;;3.23;;
9968;SDS011;5025;48.890;9.278;2022-11-06T12:01:55;3.40;;;3.20;;
9968;SDS011;5025;48.890;9.278;2022-11-06T12:04:37;2.70;;;2.60;;
9968;SDS011;5025;48.890;9.278;2022-11-06T12:07:05;2.90;;;2.80;;
9968;SDS011;5025;48.890;9.278;2022-11-06T12:09:41;2.63;;;2.53;;
9968;SDS011;5025;48.890;9.278;2022-11-06T12:12:21;2.50;;;2.40;;
9968;SDS011;5025;48.890;9.278;2022-11-06T12:18:09;2.40;;;2.30;;
9968;SDS011;5025;48.890;9.278;2022-11-06T12:20:40;2.13;;;2.03;;
9968;SDS011;5025;48.890;9.278;2022-11-06T12:23:15;2.37;;;2.17;;
9968;SDS011;5025;48.890;9.278;2022-11-06T12:25:53;2.20;;;2.10;;
9968;SDS011;5025;48.890;9.278;2022-11-06T12:28:23;2.23;;;2.13;;
9968;SDS011;5025;48.890;9.278;2022-11-06T12:30:58;2.40;;;2.30;;
9968;SDS011;5025;48.890;9.278;2022-11-06T12:33:29;2.10;;;2.00;;
9968;SDS011;5025;48.890;9.278;2022-11-06T12:35:56;2.27;;;2.17;;
9968;SDS011;5025;48.890;9.278;2022-11-06T12:41:21;2.43;;;2.33;;
9968;SDS011;5025;48.890;9.278;2022-11-06T12:43:45;2.00;;;1.90;;
9968;SDS011;5025;48.890;9.278;2022-11-06T12:49:06;1.83;;;1.80;;
9968;SDS011;5025;48.890;9.278;2022-11-06T12:59:36;3.17;;;2.97;;
9968;SDS011;5025;48.890;9.278;2022-11-06T13:12:46;2.13;;;2.03;;
9968;SDS011;5025;48.890;9.278;2022-11-06T13:15:20;2.13;;;2.03;;
9968;SDS011;5025;48.890;9.278;2022-11-06T13:17:52;2.50;;;2.40;;
9968;SDS011;5025;48.890;9.278;2022-11-06T13:22:58;2.50;;;2.40;;
9968;SDS011;5025;48.890;9.278;2022-11-06T13:30:55;2.63;;;2.53;;
9968;SDS011;5025;48.890;9.278;2022-11-06T13:35:53;3.90;;;3.70;;
9968;SDS011;5025;48.890;9.278;2022-11-06T13:38:23;3.00;;;2.90;;
9968;SDS011;5025;48.890;9.278;2022-11-06T13:40:50;2.60;;;2.50;;
9968;SDS011;5025;48.890;9.278;2022-11-06T13:43:19;2.30;;;2.20;;
9968;SDS011;5025;48.890;9.278;2022-11-06T13:45:52;2.40;;;2.30;;
9968;SDS011;5025;48.890;9.278;2022-11-06T13:48:32;2.47;;;2.37;;
9968;SDS011;5025;48.890;9.278;2022-11-06T14:07:36;2.10;;;2.00;;
9968;SDS011;5025;48.890;9.278;2022-11-06T14:10:04;1.97;;;1.97;;
9968;SDS011;5025;48.890;9.278;2022-11-06T14:12:30;2.40;;;2.20;;
9968;SDS011;5025;48.890;9.278;2022-11-06T14:15:12;2.37;;;2.27;;
9968;SDS011;5025;48.890;9.278;2022-11-06T14:17:52;2.40;;;2.30;;
9968;SDS011;5025;48.890;9.278;2022-11-06T14:22:53;2.63;;;2.53;;
9968;SDS011;5025;48.890;9.278;2022-11-06T14:32:53;2.50;;;2.40;;
9968;SDS011;5025;48.890;9.278;2022-11-06T14:37:53;2.83;;;2.70;;
9968;SDS011;5025;48.890;9.278;2022-11-06T14:40:33;2.50;;;2.40;;
9968;SDS011;5025;48.890;9.278;2022-11-06T14:43:00;2.40;;;2.30;;
9968;SDS011;5025;48.890;9.278;2022-11-06T14:48:27;2.70;;;2.60;;
9968;SDS011;5025;48.890;9.278;2022-11-06T14:50:58;2.57;;;2.47;;
9968;SDS011;5025;48.890;9.278;2022-11-06T14:53:34;2.60;;;2.50;;
9968;SDS011;5025;48.890;9.278;2022-11-06T14:56:18;4.23;;;3.93;;
9968;SDS011;5025;48.890;9.278;2022-11-06T14:58:49;3.70;;;3.50;;
9968;SDS011;5025;48.890;9.278;2022-11-06T15:01:28;3.70;;;3.50;;
9968;SDS011;5025;48.890;9.278;2022-11-06T15:03:57;3.00;;;2.80;;
9968;SDS011;5025;48.890;9.278;2022-11-06T15:08:56;2.80;;;2.70;;
9968;SDS011;5025;48.890;9.278;2022-11-06T15:13:53;3.40;;;3.20;;
9968;SDS011;5025;48.890;9.278;2022-11-06T15:16:19;3.07;;;2.87;;
9968;SDS011;5025;48.890;9.278;2022-11-06T15:18:46;2.90;;;2.70;;
9968;SDS011;5025;48.890;9.278;2022-11-06T15:21:15;2.90;;;2.80;;
9968;SDS011;5025;48.890;9.278;2022-11-06T15:23:52;2.77;;;2.67;;
9968;SDS011;5025;48.890;9.278;2022-11-06T15:26:23;2.93;;;2.83;;
9968;SDS011;5025;48.890;9.278;2022-11-06T15:29:01;3.13;;;2.93;;
9968;SDS011;5025;48.890;9.278;2022-11-06T15:31:30;3.07;;;2.87;;
9968;SDS011;5025;48.890;9.278;2022-11-06T15:33:58;2.57;;;2.47;;
9968;SDS011;5025;48.890;9.278;2022-11-06T15:36:27;2.70;;;2.60;;
9968;SDS011;5025;48.890;9.278;2022-11-06T15:38:56;2.80;;;2.60;;
9968;SDS011;5025;48.890;9.278;2022-11-06T15:41:23;3.40;;;3.20;;
9968;SDS011;5025;48.890;9.278;2022-11-06T15:43:50;2.50;;;2.40;;
9968;SDS011;5025;48.890;9.278;2022-11-06T15:46:36;2.90;;;2.70;;
9968;SDS011;5025;48.890;9.278;2022-11-06T15:51:32;2.97;;;2.77;;
9968;SDS011;5025;48.890;9.278;2022-11-06T15:53:57;2.80;;;2.70;;
9968;SDS011;5025;48.890;9.278;2022-11-06T15:56:27;2.80;;;2.60;;
9968;SDS011;5025;48.890;9.278;2022-11-06T15:59:12;3.30;;;3.10;;
9968;SDS011;5025;48.890;9.278;2022-11-06T16:01:44;3.17;;;2.97;;
9968;SDS011;5025;48.890;9.278;2022-11-06T16:04:13;4.50;;;4.20;;
9968;SDS011;5025;48.890;9.278;2022-11-06T16:06:43;3.77;;;3.57;;
9968;SDS011;5025;48.890;9.278;2022-11-06T16:09:18;6.43;;;5.83;;
9968;SDS011;5025;48.890;9.278;2022-11-06T16:11:46;5.70;;;5.30;;
9968;SDS011;5025;48.890;9.278;2022-11-06T16:14:14;5.07;;;4.73;;
9968;SDS011;5025;48.890;9.278;2022-11-06T16:16:41;4.40;;;4.10;;
9968;SDS011;5025;48.890;9.278;2022-11-06T16:21:57;4.00;;;3.70;;
9968;SDS011;5025;48.890;9.278;2022-11-06T16:24:27;4.20;;;3.90;;
9968;SDS011;5025;48.890;9.278;2022-11-06T16:26:57;4.27;;;4.00;;
9968;SDS011;5025;48.890;9.278;2022-11-06T16:29:27;4.50;;;4.20;;
9968;SDS011;5025;48.890;9.278;2022-11-06T16:31:58;4.50;;;4.20;;
9968;SDS011;5025;48.890;9.278;2022-11-06T16:36:59;3.67;;;3.47;;
9968;SDS011;5025;48.890;9.278;2022-11-06T16:44:42;3.87;;;3.67;;
9968;SDS011;5025;48.890;9.278;2022-11-06T16:55:01;4.97;;;4.57;;
9968;SDS011;5025;48.890;9.278;2022-11-06T16:57:33;5.07;;;4.67;;
9968;SDS011;5025;48.890;9.278;2022-11-06T17:00:07;5.03;;;4.63;;
9968;SDS011;5025;48.890;9.278;2022-11-06T17:02:56;4.90;;;4.53;;
9968;SDS011;5025;48.890;9.278;2022-11-06T17:05:25;4.60;;;4.30;;
9968;SDS011;5025;48.890;9.278;2022-11-06T17:10:46;4.97;;;4.57;;
9968;SDS011;5025;48.890;9.278;2022-11-06T17:15:59;4.47;;;4.10;;
9968;SDS011;5025;48.890;9.278;2022-11-06T17:18:26;4.23;;;3.93;;
9968;SDS011;5025;48.890;9.278;2022-11-06T17:20:54;5.07;;;4.67;;
9968;SDS011;5025;48.890;9.278;2022-11-06T17:23:21;5.20;;;4.80;;
9968;SDS011;5025;48.890;9.278;2022-11-06T17:25:47;4.37;;;4.07;;
9968;SDS011;5025;48.890;9.278;2022-11-06T17:28:15;5.00;;;4.70;;
9968;SDS011;5025;48.890;9.278;2022-11-06T17:30:40;4.57;;;4.27;;
9968;SDS011;5025;48.890;9.278;2022-11-06T17:33:06;4.50;;;4.20;;
9968;SDS011;5025;48.890;9.278;2022-11-06T17:35:31;5.03;;;4.63;;
9968;SDS011;5025;48.890;9.278;2022-11-06T17:37:57;5.10;;;4.70;;
9968;SDS011;5025;48.890;9.278;2022-11-06T17:40:22;5.77;;;5.27;;
9968;SDS011;5025;48.890;9.278;2022-11-06T17:42:47;6.00;;;5.50;;
9968;SDS011;5025;48.890;9.278;2022-11-06T17:45:12;7.37;;;6.77;;
9968;SDS011;5025;48.890;9.278;2022-11-06T17:47:38;8.13;;;7.33;;
9968;SDS011;5025;48.890;9.278;2022-11-06T17:50:03;7.60;;;6.90;;
9968;SDS011;5025;48.890;9.278;2022-11-06T17:52:29;6.77;;;6.17;;
9968;SDS011;5025;48.890;9.278;2022-11-06T17:54:55;5.80;;;5.30;;
9968;SDS011;5025;48.890;9.278;2022-11-06T17:57:20;5.90;;;5.40;;
9968;SDS011;5025;48.890;9.278;2022-11-06T17:59:45;4.93;;;4.53;;
9968;SDS011;5025;48.890;9.278;2022-11-06T18:02:14;4.67;;;4.37;;
9968;SDS011;5025;48.890;9.278;2022-11-06T18:04:40;4.70;;;4.30;;
9968;SDS011;5025;48.890;9.278;2022-11-06T18:07:06;4.97;;;4.67;;
9968;SDS011;5025;48.890;9.278;2022-11-06T18:09:32;4.83;;;4.53;;
9968;SDS011;5025;48.890;9.278;2022-11-06T18:11:57;4.53;;;4.23;;
9968;SDS011;5025;48.890;9.278;2022-11-06T18:14:24;4.53;;;4.23;;
9968;SDS011;5025;48.890;9.278;2022-11-06T18:16:50;4.90;;;4.50;;
9968;SDS011;5025;48.890;9.278;2022-11-06T18:19:17;5.17;;;4.70;;
9968;SDS011;5025;48.890;9.278;2022-11-06T18:21:46;4.80;;;4.50;;
9968;SDS011;5025;48.890;9.278;2022-11-06T18:24:11;4.93;;;4.53;;
9968;SDS011;5025;48.890;9.278;2022-11-06T18:26:36;4.60;;;4.27;;
9968;SDS011;5025;48.890;9.278;2022-11-06T18:29:02;4.30;;;4.03;;
9968;SDS011;5025;48.890;9.278;2022-11-06T18:31:28;4.60;;;4.30;;